sensor_id;sensor_type;location;lat;lon;timestamp;P1;durP1;ratioP1;P2;durP2;ratioP2
49460;SDS011;35355;49.198;-0.368;2022-11-30T00:01:54;36.15;;;14.18;;
49460;SDS011;35355;49.198;-0.368;2022-11-30T00:04:20;35.47;;;13.73;;
49460;SDS011;35355;49.198;-0.368;2022-11-30T00:06:45;34.10;;;13.05;;
49460;SDS011;35355;49.198;-0.368;2022-11-30T00:09:11;37.10;;;14.07;;
49460;SDS011;35355;49.198;-0.368;2022-11-30T00:11:37;42.28;;;13.63;;
49460;SDS011;35355;49.198;-0.368;2022-11-30T00:14:02;33.30;;;11.88;;
49460;SDS011;35355;49.198;-0.368;2022-11-30T00:16:28;33.42;;;13.52;;
49460;SDS011;35355;49.198;-0.368;2022-11-30T00:18:53;32.97;;;13.38;;
49460;SDS011;35355;49.198;-0.368;2022-11-30T00:21:18;34.20;;;13.60;;
49460;SDS011;35355;49.198;-0.368;2022-11-30T00:23:44;34.13;;;15.45;;
49460;SDS011;35355;49.198;-0.368;2022-11-30T00:26:12;40.30;;;14.73;;
49460;SDS011;35355;49.198;-0.368;2022-11-30T00:28:39;33.13;;;14.77;;
49460;SDS011;35355;49.198;-0.368;2022-11-30T00:31:06;37.03;;;14.90;;
49460;SDS011;35355;49.198;-0.368;2022-11-30T00:33:35;34.75;;;14.50;;
49460;SDS011;35355;49.198;-0.368;2022-11-30T00:36:03;33.30;;;14.02;;
49460;SDS011;35355;49.198;-0.368;2022-11-30T00:38:31;37.75;;;15.25;;
49460;SDS011;35355;49.198;-0.368;2022-11-30T00:40:57;32.00;;;13.98;;
49460;SDS011;35355;49.198;-0.368;2022-11-30T00:43:22;39.10;;;15.35;;
49460;SDS011;35355;49.198;-0.368;2022-11-30T00:45:48;39.85;;;14.75;;
49460;SDS011;35355;49.198;-0.368;2022-11-30T00:48:13;38.92;;;16.02;;
49460;SDS011;35355;49.198;-0.368;2022-11-30T00:50:38;35.17;;;15.88;;
49460;SDS011;35355;49.198;-0.368;2022-11-30T00:53:04;36.38;;;15.25;;
49460;SDS011;35355;49.198;-0.368;2022-11-30T00:55:29;34.65;;;14.50;;
49460;SDS011;35355;49.198;-0.368;2022-11-30T00:57:56;36.90;;;14.88;;
49460;SDS011;35355;49.198;-0.368;2022-11-30T01:00:22;32.03;;;14.52;;
49460;SDS011;35355;49.198;-0.368;2022-11-30T01:02:47;40.45;;;16.02;;
49460;SDS011;35355;49.198;-0.368;2022-11-30T01:05:12;31.33;;;14.05;;
49460;SDS011;35355;49.198;-0.368;2022-11-30T01:07:38;38.28;;;14.32;;
49460;SDS011;35355;49.198;-0.368;2022-11-30T01:10:03;32.78;;;14.90;;
49460;SDS011;35355;49.198;-0.368;2022-11-30T01:12:29;37.20;;;14.90;;
49460;SDS011;35355;49.198;-0.368;2022-11-30T01:14:54;41.72;;;16.15;;
49460;SDS011;35355;49.198;-0.368;2022-11-30T01:17:20;36.35;;;14.55;;
49460;SDS011;35355;49.198;-0.368;2022-11-30T01:19:45;36.50;;;14.68;;
49460;SDS011;35355;49.198;-0.368;2022-11-30T01:22:10;41.83;;;16.88;;
49460;SDS011;35355;49.198;-0.368;2022-11-30T01:24:36;35.60;;;14.25;;
49460;SDS011;35355;49.198;-0.368;2022-11-30T01:27:01;35.05;;;15.45;;
49460;SDS011;35355;49.198;-0.368;2022-11-30T01:29:27;37.67;;;15.38;;
49460;SDS011;35355;49.198;-0.368;2022-11-30T01:31:52;46.75;;;17.30;;
49460;SDS011;35355;49.198;-0.368;2022-11-30T01:34:17;45.83;;;19.25;;
49460;SDS011;35355;49.198;-0.368;2022-11-30T01:36:43;48.58;;;20.48;;
49460;SDS011;35355;49.198;-0.368;2022-11-30T01:39:08;40.72;;;19.70;;
49460;SDS011;35355;49.198;-0.368;2022-11-30T01:41:34;44.38;;;20.52;;
49460;SDS011;35355;49.198;-0.368;2022-11-30T01:46:38;36.30;;;15.52;;
49460;SDS011;35355;49.198;-0.368;2022-11-30T01:49:42;36.15;;;15.48;;
49460;SDS011;35355;49.198;-0.368;2022-11-30T01:52:15;36.08;;;16.48;;
49460;SDS011;35355;49.198;-0.368;2022-11-30T01:54:57;39.08;;;15.70;;
49460;SDS011;35355;49.198;-0.368;2022-11-30T02:00:04;41.00;;;17.05;;
49460;SDS011;35355;49.198;-0.368;2022-11-30T02:02:38;32.67;;;14.23;;
49460;SDS011;35355;49.198;-0.368;2022-11-30T02:05:12;32.92;;;13.93;;
49460;SDS011;35355;49.198;-0.368;2022-11-30T02:07:39;28.95;;;13.63;;
49460;SDS011;35355;49.198;-0.368;2022-11-30T02:10:06;30.35;;;13.13;;
49460;SDS011;35355;49.198;-0.368;2022-11-30T02:12:44;35.63;;;14.93;;
49460;SDS011;35355;49.198;-0.368;2022-11-30T02:15:13;28.13;;;12.80;;
49460;SDS011;35355;49.198;-0.368;2022-11-30T02:17:49;29.85;;;12.32;;
49460;SDS011;35355;49.198;-0.368;2022-11-30T02:20:30;30.10;;;13.02;;
49460;SDS011;35355;49.198;-0.368;2022-11-30T02:34:13;20.80;;;10.30;;
49460;SDS011;35355;49.198;-0.368;2022-11-30T02:36:43;23.42;;;10.98;;
49460;SDS011;35355;49.198;-0.368;2022-11-30T02:39:10;24.23;;;10.20;;
49460;SDS011;35355;49.198;-0.368;2022-11-30T02:41:36;23.38;;;10.60;;
49460;SDS011;35355;49.198;-0.368;2022-11-30T02:44:02;22.92;;;11.27;;
49460;SDS011;35355;49.198;-0.368;2022-11-30T02:49:29;25.17;;;10.48;;
49460;SDS011;35355;49.198;-0.368;2022-11-30T02:52:01;24.75;;;10.75;;
49460;SDS011;35355;49.198;-0.368;2022-11-30T02:54:29;21.83;;;10.85;;
49460;SDS011;35355;49.198;-0.368;2022-11-30T02:56:54;21.83;;;10.02;;
49460;SDS011;35355;49.198;-0.368;2022-11-30T02:59:19;32.13;;;11.50;;
49460;SDS011;35355;49.198;-0.368;2022-11-30T03:01:46;21.15;;;10.35;;
49460;SDS011;35355;49.198;-0.368;2022-11-30T03:04:11;22.42;;;9.98;;
49460;SDS011;35355;49.198;-0.368;2022-11-30T03:06:36;18.45;;;8.50;;
49460;SDS011;35355;49.198;-0.368;2022-11-30T03:09:02;22.42;;;9.50;;
49460;SDS011;35355;49.198;-0.368;2022-11-30T03:11:27;18.33;;;9.80;;
49460;SDS011;35355;49.198;-0.368;2022-11-30T03:13:52;17.85;;;9.00;;
49460;SDS011;35355;49.198;-0.368;2022-11-30T03:16:18;22.75;;;11.48;;
49460;SDS011;35355;49.198;-0.368;2022-11-30T03:18:43;22.38;;;10.10;;
49460;SDS011;35355;49.198;-0.368;2022-11-30T03:21:09;18.23;;;9.45;;
49460;SDS011;35355;49.198;-0.368;2022-11-30T03:23:36;23.13;;;8.88;;
49460;SDS011;35355;49.198;-0.368;2022-11-30T03:26:03;21.10;;;9.35;;
49460;SDS011;35355;49.198;-0.368;2022-11-30T03:28:30;22.95;;;9.02;;
49460;SDS011;35355;49.198;-0.368;2022-11-30T03:30:55;21.15;;;9.07;;
49460;SDS011;35355;49.198;-0.368;2022-11-30T03:33:21;16.27;;;8.18;;
49460;SDS011;35355;49.198;-0.368;2022-11-30T03:35:47;25.27;;;9.10;;
49460;SDS011;35355;49.198;-0.368;2022-11-30T03:38:13;20.75;;;8.13;;
49460;SDS011;35355;49.198;-0.368;2022-11-30T03:40:38;21.85;;;8.52;;
49460;SDS011;35355;49.198;-0.368;2022-11-30T03:43:03;14.68;;;7.47;;
49460;SDS011;35355;49.198;-0.368;2022-11-30T03:45:29;19.30;;;7.68;;
49460;SDS011;35355;49.198;-0.368;2022-11-30T03:47:54;17.40;;;7.97;;
49460;SDS011;35355;49.198;-0.368;2022-11-30T03:50:20;19.25;;;8.40;;
49460;SDS011;35355;49.198;-0.368;2022-11-30T03:52:45;19.88;;;7.72;;
49460;SDS011;35355;49.198;-0.368;2022-11-30T03:55:11;21.50;;;8.73;;
49460;SDS011;35355;49.198;-0.368;2022-11-30T03:57:36;17.10;;;8.20;;
49460;SDS011;35355;49.198;-0.368;2022-11-30T04:00:03;22.58;;;9.32;;
49460;SDS011;35355;49.198;-0.368;2022-11-30T04:02:29;20.13;;;7.20;;
49460;SDS011;35355;49.198;-0.368;2022-11-30T04:04:54;28.65;;;9.80;;
49460;SDS011;35355;49.198;-0.368;2022-11-30T04:07:20;23.77;;;8.20;;
49460;SDS011;35355;49.198;-0.368;2022-11-30T04:09:45;23.60;;;9.50;;
49460;SDS011;35355;49.198;-0.368;2022-11-30T04:12:10;21.30;;;8.20;;
49460;SDS011;35355;49.198;-0.368;2022-11-30T04:14:36;24.30;;;9.30;;
49460;SDS011;35355;49.198;-0.368;2022-11-30T04:17:01;20.98;;;8.82;;
49460;SDS011;35355;49.198;-0.368;2022-11-30T04:19:27;29.35;;;9.07;;
49460;SDS011;35355;49.198;-0.368;2022-11-30T04:21:52;19.77;;;7.70;;
49460;SDS011;35355;49.198;-0.368;2022-11-30T04:24:17;21.50;;;9.05;;
49460;SDS011;35355;49.198;-0.368;2022-11-30T04:26:43;19.55;;;7.60;;
49460;SDS011;35355;49.198;-0.368;2022-11-30T04:29:10;15.43;;;6.53;;
49460;SDS011;35355;49.198;-0.368;2022-11-30T04:31:35;15.82;;;6.47;;
49460;SDS011;35355;49.198;-0.368;2022-11-30T04:34:00;19.10;;;7.05;;
49460;SDS011;35355;49.198;-0.368;2022-11-30T04:36:26;12.30;;;6.03;;
49460;SDS011;35355;49.198;-0.368;2022-11-30T04:38:51;21.58;;;7.28;;
49460;SDS011;35355;49.198;-0.368;2022-11-30T04:41:16;12.20;;;5.35;;
49460;SDS011;35355;49.198;-0.368;2022-11-30T04:43:42;17.85;;;6.80;;
49460;SDS011;35355;49.198;-0.368;2022-11-30T04:46:07;13.60;;;6.88;;
49460;SDS011;35355;49.198;-0.368;2022-11-30T04:48:33;14.50;;;7.13;;
49460;SDS011;35355;49.198;-0.368;2022-11-30T04:50:59;17.80;;;6.70;;
49460;SDS011;35355;49.198;-0.368;2022-11-30T04:53:29;17.83;;;7.97;;
49460;SDS011;35355;49.198;-0.368;2022-11-30T04:55:55;13.90;;;6.35;;
49460;SDS011;35355;49.198;-0.368;2022-11-30T04:58:21;13.20;;;5.80;;
49460;SDS011;35355;49.198;-0.368;2022-11-30T05:00:46;10.52;;;5.00;;
49460;SDS011;35355;49.198;-0.368;2022-11-30T05:03:11;14.23;;;5.70;;
49460;SDS011;35355;49.198;-0.368;2022-11-30T05:05:37;12.43;;;5.53;;
49460;SDS011;35355;49.198;-0.368;2022-11-30T05:08:02;9.85;;;5.07;;
49460;SDS011;35355;49.198;-0.368;2022-11-30T05:10:28;7.82;;;4.00;;
49460;SDS011;35355;49.198;-0.368;2022-11-30T05:12:54;9.60;;;4.47;;
49460;SDS011;35355;49.198;-0.368;2022-11-30T05:15:21;10.93;;;4.32;;
49460;SDS011;35355;49.198;-0.368;2022-11-30T05:17:46;13.63;;;4.45;;
49460;SDS011;35355;49.198;-0.368;2022-11-30T05:41:53;10.73;;;4.72;;
49460;SDS011;35355;49.198;-0.368;2022-11-30T05:44:19;9.10;;;4.43;;
49460;SDS011;35355;49.198;-0.368;2022-11-30T05:46:44;10.73;;;5.18;;
49460;SDS011;35355;49.198;-0.368;2022-11-30T05:49:10;9.27;;;4.22;;
49460;SDS011;35355;49.198;-0.368;2022-11-30T05:51:35;9.60;;;3.92;;
49460;SDS011;35355;49.198;-0.368;2022-11-30T05:54:00;14.43;;;4.70;;
49460;SDS011;35355;49.198;-0.368;2022-11-30T05:56:26;14.07;;;5.15;;
49460;SDS011;35355;49.198;-0.368;2022-11-30T05:58:51;11.93;;;4.50;;
49460;SDS011;35355;49.198;-0.368;2022-11-30T06:01:20;12.38;;;5.53;;
49460;SDS011;35355;49.198;-0.368;2022-11-30T06:03:49;9.18;;;4.70;;
49460;SDS011;35355;49.198;-0.368;2022-11-30T06:06:16;10.00;;;4.07;;
49460;SDS011;35355;49.198;-0.368;2022-11-30T06:08:42;8.25;;;4.10;;
49460;SDS011;35355;49.198;-0.368;2022-11-30T06:11:08;9.20;;;4.28;;
49460;SDS011;35355;49.198;-0.368;2022-11-30T06:13:34;8.40;;;4.38;;
49460;SDS011;35355;49.198;-0.368;2022-11-30T06:16:00;9.50;;;4.85;;
49460;SDS011;35355;49.198;-0.368;2022-11-30T06:18:26;8.57;;;4.40;;
49460;SDS011;35355;49.198;-0.368;2022-11-30T06:20:52;9.20;;;4.10;;
49460;SDS011;35355;49.198;-0.368;2022-11-30T06:23:17;7.18;;;3.30;;
49460;SDS011;35355;49.198;-0.368;2022-11-30T06:25:43;10.45;;;4.30;;
49460;SDS011;35355;49.198;-0.368;2022-11-30T06:28:08;7.88;;;3.72;;
49460;SDS011;35355;49.198;-0.368;2022-11-30T06:30:34;7.18;;;3.58;;
49460;SDS011;35355;49.198;-0.368;2022-11-30T06:32:59;9.00;;;4.05;;
49460;SDS011;35355;49.198;-0.368;2022-11-30T06:35:25;7.25;;;3.30;;
49460;SDS011;35355;49.198;-0.368;2022-11-30T06:37:50;7.68;;;4.05;;
49460;SDS011;35355;49.198;-0.368;2022-11-30T06:40:15;8.85;;;4.32;;
49460;SDS011;35355;49.198;-0.368;2022-11-30T06:42:41;13.68;;;3.47;;
49460;SDS011;35355;49.198;-0.368;2022-11-30T06:45:07;12.43;;;4.65;;
49460;SDS011;35355;49.198;-0.368;2022-11-30T06:47:32;12.27;;;3.80;;
49460;SDS011;35355;49.198;-0.368;2022-11-30T06:49:58;5.57;;;3.45;;
49460;SDS011;35355;49.198;-0.368;2022-11-30T06:52:23;7.22;;;3.78;;
49460;SDS011;35355;49.198;-0.368;2022-11-30T06:54:49;11.25;;;3.92;;
49460;SDS011;35355;49.198;-0.368;2022-11-30T06:57:14;5.57;;;3.22;;
49460;SDS011;35355;49.198;-0.368;2022-11-30T06:59:40;9.20;;;3.90;;
49460;SDS011;35355;49.198;-0.368;2022-11-30T07:02:13;7.82;;;3.38;;
49460;SDS011;35355;49.198;-0.368;2022-11-30T07:04:39;7.82;;;4.22;;
49460;SDS011;35355;49.198;-0.368;2022-11-30T07:07:05;10.25;;;4.65;;
49460;SDS011;35355;49.198;-0.368;2022-11-30T07:09:31;7.97;;;4.18;;
49460;SDS011;35355;49.198;-0.368;2022-11-30T07:11:57;10.45;;;3.72;;
49460;SDS011;35355;49.198;-0.368;2022-11-30T07:14:22;10.43;;;4.53;;
49460;SDS011;35355;49.198;-0.368;2022-11-30T07:16:49;10.82;;;4.68;;
49460;SDS011;35355;49.198;-0.368;2022-11-30T07:19:15;8.15;;;3.95;;
49460;SDS011;35355;49.198;-0.368;2022-11-30T07:21:40;10.65;;;5.50;;
49460;SDS011;35355;49.198;-0.368;2022-11-30T07:24:06;9.95;;;4.05;;
49460;SDS011;35355;49.198;-0.368;2022-11-30T07:26:50;6.82;;;3.67;;
49460;SDS011;35355;49.198;-0.368;2022-11-30T07:29:15;7.97;;;3.72;;
49460;SDS011;35355;49.198;-0.368;2022-11-30T07:31:41;9.30;;;4.30;;
49460;SDS011;35355;49.198;-0.368;2022-11-30T07:34:07;13.32;;;4.40;;
49460;SDS011;35355;49.198;-0.368;2022-11-30T07:36:35;13.55;;;4.07;;
49460;SDS011;35355;49.198;-0.368;2022-11-30T07:39:01;7.68;;;3.97;;
49460;SDS011;35355;49.198;-0.368;2022-11-30T07:41:27;8.05;;;4.03;;
49460;SDS011;35355;49.198;-0.368;2022-11-30T07:43:53;8.88;;;4.03;;
49460;SDS011;35355;49.198;-0.368;2022-11-30T07:46:19;8.77;;;4.60;;
49460;SDS011;35355;49.198;-0.368;2022-11-30T07:48:44;10.77;;;5.38;;
49460;SDS011;35355;49.198;-0.368;2022-11-30T07:51:17;9.48;;;3.67;;
49460;SDS011;35355;49.198;-0.368;2022-11-30T07:53:44;11.30;;;4.43;;
49460;SDS011;35355;49.198;-0.368;2022-11-30T07:56:11;9.07;;;3.83;;
49460;SDS011;35355;49.198;-0.368;2022-11-30T07:58:43;11.00;;;4.00;;
49460;SDS011;35355;49.198;-0.368;2022-11-30T08:01:12;8.38;;;3.80;;
49460;SDS011;35355;49.198;-0.368;2022-11-30T08:03:39;9.60;;;4.20;;
49460;SDS011;35355;49.198;-0.368;2022-11-30T08:06:06;7.38;;;4.93;;
49460;SDS011;35355;49.198;-0.368;2022-11-30T08:08:34;11.77;;;4.85;;
49460;SDS011;35355;49.198;-0.368;2022-11-30T08:11:01;8.82;;;4.38;;
49460;SDS011;35355;49.198;-0.368;2022-11-30T08:13:28;6.10;;;3.55;;
49460;SDS011;35355;49.198;-0.368;2022-11-30T08:15:53;7.70;;;3.72;;
49460;SDS011;35355;49.198;-0.368;2022-11-30T08:18:19;11.52;;;3.30;;
49460;SDS011;35355;49.198;-0.368;2022-11-30T08:20:45;10.93;;;3.78;;
49460;SDS011;35355;49.198;-0.368;2022-11-30T08:23:10;8.23;;;3.55;;
49460;SDS011;35355;49.198;-0.368;2022-11-30T08:25:36;11.88;;;4.13;;
49460;SDS011;35355;49.198;-0.368;2022-11-30T08:28:02;14.52;;;4.45;;
49460;SDS011;35355;49.198;-0.368;2022-11-30T08:30:28;8.80;;;3.70;;
49460;SDS011;35355;49.198;-0.368;2022-11-30T08:32:53;6.50;;;3.28;;
49460;SDS011;35355;49.198;-0.368;2022-11-30T08:35:19;10.20;;;4.20;;
49460;SDS011;35355;49.198;-0.368;2022-11-30T08:37:47;5.00;;;3.10;;
49460;SDS011;35355;49.198;-0.368;2022-11-30T08:40:13;12.88;;;4.63;;
49460;SDS011;35355;49.198;-0.368;2022-11-30T08:42:38;14.98;;;5.32;;
49460;SDS011;35355;49.198;-0.368;2022-11-30T08:45:04;11.10;;;4.30;;
49460;SDS011;35355;49.198;-0.368;2022-11-30T08:47:30;14.05;;;4.25;;
49460;SDS011;35355;49.198;-0.368;2022-11-30T08:49:56;9.70;;;4.53;;
49460;SDS011;35355;49.198;-0.368;2022-11-30T08:52:22;10.77;;;4.88;;
49460;SDS011;35355;49.198;-0.368;2022-11-30T08:54:47;14.70;;;5.03;;
49460;SDS011;35355;49.198;-0.368;2022-11-30T08:57:17;11.20;;;4.10;;
49460;SDS011;35355;49.198;-0.368;2022-11-30T08:59:45;7.35;;;4.53;;
49460;SDS011;35355;49.198;-0.368;2022-11-30T09:02:11;12.80;;;5.70;;
49460;SDS011;35355;49.198;-0.368;2022-11-30T09:04:40;13.85;;;5.03;;
49460;SDS011;35355;49.198;-0.368;2022-11-30T09:07:06;13.68;;;4.97;;
49460;SDS011;35355;49.198;-0.368;2022-11-30T09:09:35;9.07;;;4.47;;
49460;SDS011;35355;49.198;-0.368;2022-11-30T09:12:01;11.85;;;5.05;;
49460;SDS011;35355;49.198;-0.368;2022-11-30T09:14:27;8.57;;;5.28;;
49460;SDS011;35355;49.198;-0.368;2022-11-30T09:16:55;13.70;;;4.70;;
49460;SDS011;35355;49.198;-0.368;2022-11-30T09:19:20;9.50;;;4.35;;
49460;SDS011;35355;49.198;-0.368;2022-11-30T09:21:46;10.80;;;5.40;;
49460;SDS011;35355;49.198;-0.368;2022-11-30T09:24:11;11.32;;;5.38;;
49460;SDS011;35355;49.198;-0.368;2022-11-30T09:26:37;8.70;;;4.60;;
49460;SDS011;35355;49.198;-0.368;2022-11-30T09:29:02;9.25;;;5.32;;
49460;SDS011;35355;49.198;-0.368;2022-11-30T09:31:28;13.02;;;4.80;;
49460;SDS011;35355;49.198;-0.368;2022-11-30T09:33:54;14.73;;;5.18;;
49460;SDS011;35355;49.198;-0.368;2022-11-30T09:36:22;10.25;;;4.93;;
49460;SDS011;35355;49.198;-0.368;2022-11-30T09:38:54;11.15;;;5.68;;
49460;SDS011;35355;49.198;-0.368;2022-11-30T09:44:03;15.48;;;5.45;;
49460;SDS011;35355;49.198;-0.368;2022-11-30T09:49:44;11.02;;;5.35;;
49460;SDS011;35355;49.198;-0.368;2022-11-30T09:52:13;12.70;;;5.97;;
49460;SDS011;35355;49.198;-0.368;2022-11-30T09:54:44;16.08;;;6.07;;
49460;SDS011;35355;49.198;-0.368;2022-11-30T10:00:24;12.40;;;5.43;;
49460;SDS011;35355;49.198;-0.368;2022-11-30T10:02:51;11.55;;;5.72;;
49460;SDS011;35355;49.198;-0.368;2022-11-30T10:05:27;12.73;;;5.30;;
49460;SDS011;35355;49.198;-0.368;2022-11-30T10:19:32;14.88;;;6.15;;
49460;SDS011;35355;49.198;-0.368;2022-11-30T10:25:03;12.82;;;6.43;;
49460;SDS011;35355;49.198;-0.368;2022-11-30T10:27:49;11.02;;;6.10;;
49460;SDS011;35355;49.198;-0.368;2022-11-30T10:30:23;14.35;;;5.32;;
49460;SDS011;35355;49.198;-0.368;2022-11-30T10:32:58;11.35;;;5.95;;
49460;SDS011;35355;49.198;-0.368;2022-11-30T10:35:49;9.68;;;5.85;;
49460;SDS011;35355;49.198;-0.368;2022-11-30T10:38:28;23.05;;;6.97;;
49460;SDS011;35355;49.198;-0.368;2022-11-30T10:41:06;10.88;;;6.45;;
49460;SDS011;35355;49.198;-0.368;2022-11-30T10:43:35;11.30;;;6.22;;
49460;SDS011;35355;49.198;-0.368;2022-11-30T10:46:07;12.65;;;6.85;;
49460;SDS011;35355;49.198;-0.368;2022-11-30T10:48:44;15.15;;;7.00;;
49460;SDS011;35355;49.198;-0.368;2022-11-30T10:51:19;12.38;;;6.28;;
49460;SDS011;35355;49.198;-0.368;2022-11-30T10:53:45;10.98;;;6.65;;
49460;SDS011;35355;49.198;-0.368;2022-11-30T10:56:14;14.15;;;5.90;;
49460;SDS011;35355;49.198;-0.368;2022-11-30T11:15:06;17.30;;;6.93;;
49460;SDS011;35355;49.198;-0.368;2022-11-30T11:17:32;11.80;;;7.05;;
49460;SDS011;35355;49.198;-0.368;2022-11-30T11:19:58;13.25;;;6.45;;
49460;SDS011;35355;49.198;-0.368;2022-11-30T11:22:26;10.80;;;6.80;;
49460;SDS011;35355;49.198;-0.368;2022-11-30T11:27:49;12.85;;;6.18;;
49460;SDS011;35355;49.198;-0.368;2022-11-30T11:41:02;9.40;;;6.43;;
49460;SDS011;35355;49.198;-0.368;2022-11-30T11:43:31;14.43;;;6.95;;
49460;SDS011;35355;49.198;-0.368;2022-11-30T11:46:00;11.30;;;6.20;;
49460;SDS011;35355;49.198;-0.368;2022-11-30T11:48:35;15.73;;;6.97;;
49460;SDS011;35355;49.198;-0.368;2022-11-30T11:51:05;15.63;;;7.15;;
49460;SDS011;35355;49.198;-0.368;2022-11-30T11:53:42;12.73;;;7.28;;
49460;SDS011;35355;49.198;-0.368;2022-11-30T11:56:26;15.10;;;7.20;;
49460;SDS011;35355;49.198;-0.368;2022-11-30T11:58:57;14.43;;;7.60;;
49460;SDS011;35355;49.198;-0.368;2022-11-30T12:01:39;14.93;;;7.85;;
49460;SDS011;35355;49.198;-0.368;2022-11-30T12:07:17;13.48;;;7.28;;
49460;SDS011;35355;49.198;-0.368;2022-11-30T12:09:54;10.68;;;7.10;;
49460;SDS011;35355;49.198;-0.368;2022-11-30T12:12:26;14.98;;;7.10;;
49460;SDS011;35355;49.198;-0.368;2022-11-30T12:14:52;15.80;;;7.82;;
49460;SDS011;35355;49.198;-0.368;2022-11-30T12:23:56;14.10;;;8.07;;
49460;SDS011;35355;49.198;-0.368;2022-11-30T12:31:18;22.95;;;8.80;;
49460;SDS011;35355;49.198;-0.368;2022-11-30T12:33:59;16.73;;;8.15;;
49460;SDS011;35355;49.198;-0.368;2022-11-30T12:39:20;12.27;;;7.63;;
49460;SDS011;35355;49.198;-0.368;2022-11-30T12:46:59;10.85;;;6.97;;
49460;SDS011;35355;49.198;-0.368;2022-11-30T12:52:29;10.80;;;6.55;;
49460;SDS011;35355;49.198;-0.368;2022-11-30T12:57:35;21.15;;;6.63;;
49460;SDS011;35355;49.198;-0.368;2022-11-30T13:05:42;14.65;;;6.70;;
49460;SDS011;35355;49.198;-0.368;2022-11-30T13:10:45;7.95;;;5.43;;
49460;SDS011;35355;49.198;-0.368;2022-11-30T13:13:15;8.68;;;5.30;;
49460;SDS011;35355;49.198;-0.368;2022-11-30T13:15:44;9.23;;;5.03;;
49460;SDS011;35355;49.198;-0.368;2022-11-30T13:18:14;12.25;;;6.78;;
49460;SDS011;35355;49.198;-0.368;2022-11-30T13:31:30;12.98;;;7.03;;
49460;SDS011;35355;49.198;-0.368;2022-11-30T13:34:01;15.03;;;7.60;;
49460;SDS011;35355;49.198;-0.368;2022-11-30T13:39:22;13.10;;;6.40;;
49460;SDS011;35355;49.198;-0.368;2022-11-30T13:42:13;10.32;;;5.95;;
49460;SDS011;35355;49.198;-0.368;2022-11-30T13:44:39;12.07;;;6.50;;
49460;SDS011;35355;49.198;-0.368;2022-11-30T13:47:16;13.00;;;5.90;;
49460;SDS011;35355;49.198;-0.368;2022-11-30T13:49:54;13.35;;;6.75;;
49460;SDS011;35355;49.198;-0.368;2022-11-30T14:10:40;15.48;;;7.82;;
49460;SDS011;35355;49.198;-0.368;2022-11-30T14:20:33;17.13;;;9.25;;
49460;SDS011;35355;49.198;-0.368;2022-11-30T14:23:21;16.13;;;9.20;;
49460;SDS011;35355;49.198;-0.368;2022-11-30T14:25:52;19.05;;;9.50;;
49460;SDS011;35355;49.198;-0.368;2022-11-30T14:28:22;16.40;;;9.77;;
49460;SDS011;35355;49.198;-0.368;2022-11-30T14:30:53;14.77;;;8.23;;
49460;SDS011;35355;49.198;-0.368;2022-11-30T14:33:26;19.65;;;9.35;;
49460;SDS011;35355;49.198;-0.368;2022-11-30T14:36:04;41.80;;;8.85;;
49460;SDS011;35355;49.198;-0.368;2022-11-30T14:38:32;18.02;;;9.15;;
49460;SDS011;35355;49.198;-0.368;2022-11-30T14:41:03;13.25;;;7.75;;
49460;SDS011;35355;49.198;-0.368;2022-11-30T14:43:29;14.10;;;7.75;;
49460;SDS011;35355;49.198;-0.368;2022-11-30T14:45:55;14.18;;;7.97;;
49460;SDS011;35355;49.198;-0.368;2022-11-30T14:48:22;15.75;;;6.72;;
49460;SDS011;35355;49.198;-0.368;2022-11-30T14:50:52;14.20;;;7.65;;
49460;SDS011;35355;49.198;-0.368;2022-11-30T14:53:31;14.85;;;7.68;;
49460;SDS011;35355;49.198;-0.368;2022-11-30T15:01:40;16.38;;;7.78;;
49460;SDS011;35355;49.198;-0.368;2022-11-30T15:04:09;22.20;;;8.85;;
49460;SDS011;35355;49.198;-0.368;2022-11-30T15:06:37;18.02;;;8.10;;
49460;SDS011;35355;49.198;-0.368;2022-11-30T15:09:04;13.98;;;7.63;;
49460;SDS011;35355;49.198;-0.368;2022-11-30T15:11:39;20.15;;;8.80;;
49460;SDS011;35355;49.198;-0.368;2022-11-30T15:14:07;14.75;;;8.02;;
49460;SDS011;35355;49.198;-0.368;2022-11-30T15:16:34;17.65;;;7.78;;
49460;SDS011;35355;49.198;-0.368;2022-11-30T15:18:59;14.27;;;7.70;;
49460;SDS011;35355;49.198;-0.368;2022-11-30T15:21:44;15.40;;;7.65;;
49460;SDS011;35355;49.198;-0.368;2022-11-30T15:24:10;15.18;;;7.90;;
49460;SDS011;35355;49.198;-0.368;2022-11-30T15:26:37;19.65;;;8.13;;
49460;SDS011;35355;49.198;-0.368;2022-11-30T15:29:27;14.93;;;7.75;;
49460;SDS011;35355;49.198;-0.368;2022-11-30T15:34:24;21.73;;;8.55;;
49460;SDS011;35355;49.198;-0.368;2022-11-30T15:36:57;14.68;;;8.50;;
49460;SDS011;35355;49.198;-0.368;2022-11-30T15:39:24;14.73;;;7.20;;
49460;SDS011;35355;49.198;-0.368;2022-11-30T15:42:13;21.27;;;9.10;;
49460;SDS011;35355;49.198;-0.368;2022-11-30T15:44:43;17.23;;;7.88;;
49460;SDS011;35355;49.198;-0.368;2022-11-30T15:53:23;16.05;;;8.60;;
49460;SDS011;35355;49.198;-0.368;2022-11-30T16:00:59;20.73;;;9.97;;
49460;SDS011;35355;49.198;-0.368;2022-11-30T16:06:19;19.65;;;9.23;;
49460;SDS011;35355;49.198;-0.368;2022-11-30T16:08:52;23.88;;;9.90;;
49460;SDS011;35355;49.198;-0.368;2022-11-30T16:11:19;21.80;;;10.48;;
49460;SDS011;35355;49.198;-0.368;2022-11-30T16:13:45;25.95;;;10.85;;
49460;SDS011;35355;49.198;-0.368;2022-11-30T16:16:12;22.00;;;10.93;;
49460;SDS011;35355;49.198;-0.368;2022-11-30T16:18:43;26.05;;;11.35;;
49460;SDS011;35355;49.198;-0.368;2022-11-30T16:21:10;26.67;;;12.95;;
49460;SDS011;35355;49.198;-0.368;2022-11-30T16:23:37;24.00;;;12.35;;
49460;SDS011;35355;49.198;-0.368;2022-11-30T16:26:03;19.92;;;10.90;;
49460;SDS011;35355;49.198;-0.368;2022-11-30T16:28:28;25.92;;;11.77;;
49460;SDS011;35355;49.198;-0.368;2022-11-30T16:30:54;22.95;;;11.00;;
49460;SDS011;35355;49.198;-0.368;2022-11-30T16:33:23;25.42;;;12.00;;
49460;SDS011;35355;49.198;-0.368;2022-11-30T16:38:18;25.30;;;10.98;;
49460;SDS011;35355;49.198;-0.368;2022-11-30T16:40:44;24.83;;;11.88;;
49460;SDS011;35355;49.198;-0.368;2022-11-30T16:43:10;23.95;;;11.57;;
49460;SDS011;35355;49.198;-0.368;2022-11-30T16:45:36;26.98;;;12.23;;
49460;SDS011;35355;49.198;-0.368;2022-11-30T16:48:02;23.55;;;12.05;;
49460;SDS011;35355;49.198;-0.368;2022-11-30T16:50:28;25.10;;;11.95;;
49460;SDS011;35355;49.198;-0.368;2022-11-30T16:52:55;22.98;;;10.95;;
49460;SDS011;35355;49.198;-0.368;2022-11-30T16:55:27;23.05;;;11.32;;
49460;SDS011;35355;49.198;-0.368;2022-11-30T16:57:55;24.77;;;11.48;;
49460;SDS011;35355;49.198;-0.368;2022-11-30T17:00:20;21.77;;;11.50;;
49460;SDS011;35355;49.198;-0.368;2022-11-30T17:02:53;31.80;;;12.80;;
49460;SDS011;35355;49.198;-0.368;2022-11-30T17:05:19;28.85;;;12.05;;
49460;SDS011;35355;49.198;-0.368;2022-11-30T17:07:45;25.60;;;11.20;;
49460;SDS011;35355;49.198;-0.368;2022-11-30T17:10:10;27.38;;;11.90;;
49460;SDS011;35355;49.198;-0.368;2022-11-30T17:12:37;27.58;;;12.85;;
49460;SDS011;35355;49.198;-0.368;2022-11-30T17:15:03;30.20;;;12.95;;
49460;SDS011;35355;49.198;-0.368;2022-11-30T17:17:29;26.30;;;13.02;;
49460;SDS011;35355;49.198;-0.368;2022-11-30T17:19:54;24.90;;;12.45;;
49460;SDS011;35355;49.198;-0.368;2022-11-30T17:22:19;26.65;;;12.52;;
49460;SDS011;35355;49.198;-0.368;2022-11-30T17:24:45;21.88;;;10.82;;
49460;SDS011;35355;49.198;-0.368;2022-11-30T17:27:10;27.70;;;13.23;;
49460;SDS011;35355;49.198;-0.368;2022-11-30T17:29:36;35.78;;;13.88;;
49460;SDS011;35355;49.198;-0.368;2022-11-30T17:32:02;28.50;;;12.43;;
49460;SDS011;35355;49.198;-0.368;2022-11-30T17:34:28;29.83;;;13.50;;
49460;SDS011;35355;49.198;-0.368;2022-11-30T17:36:54;32.78;;;12.77;;
49460;SDS011;35355;49.198;-0.368;2022-11-30T17:39:20;27.70;;;12.60;;
49460;SDS011;35355;49.198;-0.368;2022-11-30T17:41:47;30.48;;;11.50;;